Time;durP1;ratioP1;P1;durP2;ratioP2;P2;SDS_P1;SDS_P2;PMS_P1;PMS_P2;Temp;Humidity;BMP_temperature;BMP_pressure;BME280_temperature;BME280_humidity;BME280_pressure;Samples;Min_cycle;Max_cycle;Signal;HPM_P1;HPM_P2
2022/03/06 00:00:46;;;;;;;;;;;;;;;15.11;50.44;102143.34;1037306;28;1465;-58
2022/03/06 00:01:37;;;;;;;;;;;;;;;15.11;50.35;102142.47;1034874;28;1462;-59
2022/03/06 00:02:27;;;;;;;;;;;;;;;15.10;50.89;102138.06;1037619;28;1420;-59
2022/03/06 00:03:17;;;;;;;;;;;;;;;15.09;50.05;102139.03;1040103;28;1432;-59
2022/03/06 00:04:08;;;;;;;;;;;;;;;15.09;50.72;102139.03;1033692;28;712;-59
2022/03/06 00:04:58;;;;;;;;;;;;;;;15.08;50.70;102142.66;1038403;28;1599;-59
2022/03/06 00:05:49;;;;;;;;;;;;;;;15.09;50.77;102139.03;1038134;28;1499;-59
2022/03/06 00:06:39;;;;;;;;;;;;;;;15.07;50.25;102143.63;1040785;28;1555;-60
2022/03/06 00:07:29;;;;;;;;;;;;;;;15.06;50.48;102144.59;1040611;28;1569;-59
2022/03/06 00:08:20;;;;;;;;;;;;;;;15.07;50.24;102135.56;1035756;28;1494;-58
2022/03/06 00:09:11;;;;;;;;;;;;;;;15.06;50.21;102141.91;1033686;28;713;-58
2022/03/06 00:10:01;;;;;;;;;;;;;;;15.05;50.32;102142.88;1033303;28;1596;-60
2022/03/06 00:10:52;;;;;;;;;;;;;;;15.05;50.63;102142.88;1038278;28;1496;-59
2022/03/06 00:11:42;;;;;;;;;;;;;;;15.04;50.80;102141.16;1036861;28;1492;-59
2022/03/06 00:12:33;;;;;;;;;;;;;;;15.04;50.41;102149.22;1041883;28;692;-59
2022/03/06 00:13:23;;;;;;;;;;;;;;;15.03;50.51;102139.44;1041812;28;640;-60
2022/03/06 00:14:13;;;;;;;;;;;;;;;15.02;50.71;102148.44;1041734;28;785;-59
2022/03/06 00:15:04;;;;;;;;;;;;;;;15.02;50.49;102151.13;1041754;28;779;-59
2022/03/06 00:15:54;;;;;;;;;;;;;;;15.01;50.71;102144.91;1041745;28;784;-59
2022/03/06 00:16:45;;;;;;;;;;;;;;;15.01;50.66;102149.41;1041692;28;710;-58
2022/03/06 00:17:35;;;;;;;;;;;;;;;15.02;50.65;102153.81;1041764;28;769;-57
2022/03/06 00:18:25;;;;;;;;;;;;;;;14.99;50.49;102151.31;1041716;28;757;-58
2022/03/06 00:19:16;;;;;;;;;;;;;;;14.98;50.67;102149.59;1041671;28;1898;-58
2022/03/06 00:20:08;;;;;;;;;;;;;;;14.98;50.23;102152.28;1041808;28;752;-58
2022/03/06 00:20:59;;;;;;;;;;;;;;;14.98;50.30;102147.78;1041809;28;699;-58
2022/03/06 00:21:49;;;;;;;;;;;;;;;14.98;50.82;102150.47;1041776;28;697;-59
2022/03/06 00:22:40;;;;;;;;;;;;;;;14.97;50.60;102147.88;1041712;28;750;-58
2022/03/06 00:23:30;;;;;;;;;;;;;;;14.99;50.29;102151.31;1041774;28;755;-59
2022/03/06 00:24:20;;;;;;;;;;;;;;;14.99;50.16;102154.88;1041745;28;756;-59
2022/03/06 00:25:11;;;;;;;;;;;;;;;14.97;50.66;102156.78;1041289;28;682;-59
2022/03/06 00:26:01;;;;;;;;;;;;;;;14.96;50.74;102154.19;1041745;28;1045;-59
2022/03/06 00:26:52;;;;;;;;;;;;;;;14.96;50.77;102154.19;1041656;28;815;-59
2022/03/06 00:27:42;;;;;;;;;;;;;;;14.94;50.63;102163.19;1041784;28;785;-59
2022/03/06 00:28:32;;;;;;;;;;;;;;;14.96;50.00;102164.94;1041666;28;825;-59
2022/03/06 00:29:23;;;;;;;;;;;;;;;14.97;50.54;102158.59;1041805;28;772;-59
2022/03/06 00:30:13;;;;;;;;;;;;;;;14.95;50.19;102164.06;1041642;28;772;-59
2022/03/06 00:31:04;;;;;;;;;;;;;;;14.96;50.65;102149.69;1041659;28;870;-60
2022/03/06 00:31:54;;;;;;;;;;;;;;;14.92;50.67;102159.75;1041621;28;796;-58
2022/03/06 00:32:44;;;;;;;;;;;;;;;14.92;50.14;102154.38;1041697;28;825;-59
2022/03/06 00:33:35;;;;;;;;;;;;;;;14.92;50.13;102159.75;1041679;28;1094;-59
2022/03/06 00:34:26;;;;;;;;;;;;;;;14.91;50.35;102157.16;1041760;28;707;-59
2022/03/06 00:35:16;;;;;;;;;;;;;;;14.91;50.65;102159.84;1033424;28;813;-58
2022/03/06 00:36:06;;;;;;;;;;;;;;;14.90;50.37;102167.03;1033263;28;729;-58
2022/03/06 00:36:57;;;;;;;;;;;;;;;14.90;50.81;102160.78;1033841;28;747;-58
2022/03/06 00:37:47;;;;;;;;;;;;;;;14.90;50.26;102161.66;1034163;28;781;-58
2022/03/06 00:38:38;;;;;;;;;;;;;;;14.89;50.68;102159.06;1034681;28;832;-58
2022/03/06 00:39:28;;;;;;;;;;;;;;;14.87;50.23;102161.84;1034679;28;1910;-59
2022/03/06 00:40:18;;;;;;;;;;;;;;;14.88;50.96;102158.19;1034539;28;736;-58
2022/03/06 00:41:09;;;;;;;;;;;;;;;14.88;50.74;102154.66;1034698;28;752;-59
2022/03/06 00:41:59;;;;;;;;;;;;;;;14.86;50.85;102162.81;1034586;28;759;-58
2022/03/06 00:42:50;;;;;;;;;;;;;;;14.85;50.71;102153.03;1034649;28;780;-58
2022/03/06 00:43:40;;;;;;;;;;;;;;;14.87;50.60;102161.84;1034826;28;738;-59
2022/03/06 00:44:30;;;;;;;;;;;;;;;14.87;50.23;102161.84;1034689;28;761;-58
2022/03/06 00:45:21;;;;;;;;;;;;;;;14.84;50.22;102156.69;1034849;28;788;-61
2022/03/06 00:46:11;;;;;;;;;;;;;;;14.86;50.69;102156.59;1033537;28;754;-57
2022/03/06 00:47:02;;;;;;;;;;;;;;;14.83;50.70;102157.66;1034702;28;677;-58
2022/03/06 00:47:52;;;;;;;;;;;;;;;14.84;50.22;102158.50;1034622;28;773;-58
2022/03/06 00:48:42;;;;;;;;;;;;;;;14.84;50.66;102156.69;1033457;28;799;-59
2022/03/06 00:49:33;;;;;;;;;;;;;;;14.83;50.24;102157.66;1034683;28;743;-59
2022/03/06 00:50:23;;;;;;;;;;;;;;;14.83;50.66;102157.66;1034742;28;709;-59
2022/03/06 00:51:14;;;;;;;;;;;;;;;14.82;50.35;102155.91;1034459;28;748;-59
2022/03/06 00:52:04;;;;;;;;;;;;;;;14.83;50.79;102163.00;1034666;28;772;-59
2022/03/06 00:52:57;;;;;;;;;;;;;;;14.83;50.52;102156.78;1034503;28;823;-59
2022/03/06 00:53:47;;;;;;;;;;;;;;;14.82;50.36;102157.75;1034712;28;804;-59
2022/03/06 00:54:37;;;;;;;;;;;;;;;14.83;50.28;102159.47;1034661;28;693;-59
2022/03/06 00:55:28;;;;;;;;;;;;;;;14.84;50.24;102161.19;1033572;28;744;-59
2022/03/06 00:56:18;;;;;;;;;;;;;;;14.80;50.22;102160.50;1034481;28;704;-58
2022/03/06 00:57:09;;;;;;;;;;;;;;;14.79;50.17;102164.16;1034556;28;690;-59
2022/03/06 00:58:05;;;;;;;;;;;;;;;14.81;50.07;102161.38;1034735;28;742;-58
2022/03/06 00:58:55;;;;;;;;;;;;;;;14.79;50.57;102160.59;1034632;28;699;-58
2022/03/06 00:59:46;;;;;;;;;;;;;;;14.78;50.69;102166.94;1034721;28;686;-58
2022/03/06 01:00:36;;;;;;;;;;;;;;;14.78;50.21;102164.25;1034689;28;769;-58
2022/03/06 01:01:27;;;;;;;;;;;;;;;14.78;50.04;102167.78;1034566;28;698;-58
2022/03/06 01:02:17;;;;;;;;;;;;;;;14.79;50.10;102161.47;1034558;28;846;-58
2022/03/06 01:03:08;;;;;;;;;;;;;;;14.77;50.28;102166.06;1034488;28;697;-57
2022/03/06 01:03:58;;;;;;;;;;;;;;;14.76;50.81;102172.38;1034632;28;823;-58
2022/03/06 01:04:49;;;;;;;;;;;;;;;14.76;50.14;102164.34;1037797;28;1963;-59
2022/03/06 01:05:39;;;;;;;;;;;;;;;14.76;50.90;102175.06;1037555;28;678;-58
2022/03/06 01:06:29;;;;;;;;;;;;;;;14.76;50.33;102180.44;1037279;28;1727;-58
2022/03/06 01:07:20;;;;;;;;;;;;;;;14.76;50.21;102175.06;1037349;28;1547;-60
2022/03/06 01:08:10;;;;;;;;;;;;;;;14.77;50.63;102186.66;1036916;28;772;-58
2022/03/06 01:09:01;;;;;;;;;;;;;;;14.75;50.83;102181.41;1033172;28;734;-58
2022/03/06 01:09:51;;;;;;;;;;;;;;;14.74;50.70;102178.78;1032629;28;773;-58
2022/03/06 01:10:41;;;;;;;;;;;;;;;14.75;50.03;102185.91;1036938;28;966;-58
2022/03/06 01:11:32;;;;;;;;;;;;;;;14.74;50.72;102181.47;1037510;28;752;-58
2022/03/06 01:12:23;;;;;;;;;;;;;;;14.74;50.34;102187.72;1036933;28;776;-58
2022/03/06 01:13:13;;;;;;;;;;;;;;;14.73;50.17;102183.31;1036998;28;780;-58
2022/03/06 01:14:04;;;;;;;;;;;;;;;14.73;50.63;102185.13;1037074;28;799;-59
2022/03/06 01:14:54;;;;;;;;;;;;;;;14.72;50.66;102189.63;1036835;28;785;-58
2022/03/06 01:15:45;;;;;;;;;;;;;;;14.71;50.44;102187.91;1037064;28;785;-58
2022/03/06 01:16:35;;;;;;;;;;;;;;;14.71;50.02;102193.25;1036908;28;827;-58
2022/03/06 01:17:25;;;;;;;;;;;;;;;14.71;49.99;102190.56;1037031;28;771;-58
2022/03/06 01:18:16;;;;;;;;;;;;;;;14.71;50.24;102193.25;1037096;28;643;-57
2022/03/06 01:19:06;;;;;;;;;;;;;;;14.71;50.59;102192.41;1036781;28;720;-58
2022/03/06 01:19:57;;;;;;;;;;;;;;;14.70;50.17;102194.22;1036914;28;806;-58
2022/03/06 01:20:47;;;;;;;;;;;;;;;14.70;50.40;102185.31;1036828;28;698;-58
2022/03/06 01:21:38;;;;;;;;;;;;;;;14.70;50.45;102194.22;1037030;28;690;-58
2022/03/06 01:22:28;;;;;;;;;;;;;;;14.68;50.56;102189.94;1036934;28;702;-58
2022/03/06 01:23:18;;;;;;;;;;;;;;;14.69;50.24;102199.69;1037388;28;689;-58
2022/03/06 01:24:09;;;;;;;;;;;;;;;14.70;50.31;102196.91;1037007;28;654;-58
2022/03/06 01:24:59;;;;;;;;;;;;;;;14.67;50.78;102191.75;1033109;28;807;-57
2022/03/06 01:25:50;;;;;;;;;;;;;;;14.70;50.66;102190.66;1032654;28;801;-58
2022/03/06 01:26:40;;;;;;;;;;;;;;;14.67;49.79;102197.13;1036674;28;630;-58
2022/03/06 01:27:30;;;;;;;;;;;;;;;14.67;50.40;102202.47;1036909;28;776;-58
2022/03/06 01:28:21;;;;;;;;;;;;;;;14.67;50.06;102196.25;1037168;28;744;-58
2022/03/06 01:29:11;;;;;;;;;;;;;;;14.66;50.17;102199.88;1036786;28;710;-58
2022/03/06 01:30:02;;;;;;;;;;;;;;;14.66;50.55;102202.56;1036993;28;701;-58
2022/03/06 01:30:52;;;;;;;;;;;;;;;14.65;50.44;102196.34;1036938;28;784;-58
2022/03/06 01:31:42;;;;;;;;;;;;;;;14.65;50.56;102195.47;1037400;28;993;-59
2022/03/06 01:32:33;;;;;;;;;;;;;;;14.63;50.13;102198.25;1037516;28;776;-59
2022/03/06 01:33:23;;;;;;;;;;;;;;;14.64;50.43;102204.47;1036889;28;850;-58
2022/03/06 01:34:14;;;;;;;;;;;;;;;14.64;50.49;102210.72;1033097;28;730;-58
2022/03/06 01:35:04;;;;;;;;;;;;;;;14.63;49.94;102203.59;1029133;28;638;-59
2022/03/06 01:35:55;;;;;;;;;;;;;;;14.64;50.46;102202.66;1032809;28;753;-58
2022/03/06 01:36:45;;;;;;;;;;;;;;;14.62;50.29;102204.56;1033764;28;762;-58
2022/03/06 01:37:35;;;;;;;;;;;;;;;14.61;50.39;102208.19;1034775;28;731;-58
2022/03/06 01:38:26;;;;;;;;;;;;;;;14.58;50.77;102211.94;1034757;28;774;-58
2022/03/06 01:39:16;;;;;;;;;;;;;;;14.61;50.59;102210.03;1034872;28;620;-58
2022/03/06 01:40:07;;;;;;;;;;;;;;;14.60;50.61;102217.22;1034755;28;708;-57
2022/03/06 01:40:57;;;;;;;;;;;;;;;14.61;50.14;102210.88;1034042;28;741;-58
2022/03/06 01:41:47;;;;;;;;;;;;;;;14.61;50.61;102212.72;1034664;28;968;-58
2022/03/06 01:42:38;;;;;;;;;;;;;;;14.59;50.80;102215.47;1034807;28;887;-58
2022/03/06 01:43:28;;;;;;;;;;;;;;;14.61;50.75;102218.06;1034865;28;765;-58
2022/03/06 01:44:19;;;;;;;;;;;;;;;14.58;49.98;102214.63;1034619;28;825;-58
2022/03/06 01:45:09;;;;;;;;;;;;;;;14.60;50.09;102219.88;1034837;28;764;-58
2022/03/06 01:45:59;;;;;;;;;;;;;;;14.60;50.74;102217.22;1034622;28;741;-58
2022/03/06 01:46:50;;;;;;;;;;;;;;;14.57;49.98;102218.25;1034676;28;662;-58
2022/03/06 01:47:40;;;;;;;;;;;;;;;14.58;50.32;102213.75;1034857;28;785;-59
2022/03/06 01:48:31;;;;;;;;;;;;;;;14.58;50.58;102219.97;1034729;28;695;-58
2022/03/06 01:49:21;;;;;;;;;;;;;;;14.58;50.18;102216.44;1034837;28;726;-59
2022/03/06 01:50:11;;;;;;;;;;;;;;;14.58;50.89;102216.44;1034606;28;920;-59
2022/03/06 01:51:02;;;;;;;;;;;;;;;14.57;50.20;102212.00;1034672;28;623;-59
2022/03/06 01:51:52;;;;;;;;;;;;;;;14.57;50.27;102228.13;1034668;28;747;-58
2022/03/06 01:52:43;;;;;;;;;;;;;;;14.56;50.02;102216.53;1034789;28;805;-59
2022/03/06 01:53:33;;;;;;;;;;;;;;;14.55;50.69;102224.66;1034792;28;686;-58
2022/03/06 01:54:24;;;;;;;;;;;;;;;14.54;50.51;102217.56;1034607;28;835;-59
2022/03/06 01:55:14;;;;;;;;;;;;;;;14.54;50.69;102225.59;1034743;28;654;-59
2022/03/06 01:56:04;;;;;;;;;;;;;;;14.52;50.20;102220.34;1034726;28;665;-59
2022/03/06 01:56:55;;;;;;;;;;;;;;;14.54;49.92;102230.97;1034671;28;789;-58
2022/03/06 01:57:45;;;;;;;;;;;;;;;14.54;49.98;102230.97;1034787;28;758;-58
2022/03/06 01:58:36;;;;;;;;;;;;;;;14.53;50.63;102226.56;1034644;28;694;-58
2022/03/06 01:59:26;;;;;;;;;;;;;;;14.53;50.80;102227.44;1034683;28;1890;-58
2022/03/06 02:00:16;;;;;;;;;;;;;;;14.53;50.46;102229.25;1034616;28;948;-58
2022/03/06 02:01:07;;;;;;;;;;;;;;;14.51;49.94;102223.13;1034614;28;689;-57
2022/03/06 02:01:57;;;;;;;;;;;;;;;14.51;50.09;102228.50;1034711;28;794;-58
2022/03/06 02:02:48;;;;;;;;;;;;;;;14.52;50.19;102233.75;1034703;28;841;-58
2022/03/06 02:03:38;;;;;;;;;;;;;;;14.52;50.14;102224.84;1034657;28;706;-58
2022/03/06 02:04:28;;;;;;;;;;;;;;;14.51;50.53;102226.66;1036013;28;1770;-58
2022/03/06 02:05:19;;;;;;;;;;;;;;;14.50;50.21;102227.63;1038056;28;814;-58
2022/03/06 02:06:10;;;;;;;;;;;;;;;14.49;50.08;102225.91;1038230;28;655;-57
2022/03/06 02:07:00;;;;;;;;;;;;;;;14.49;50.88;102225.91;1038158;28;729;-58
2022/03/06 02:07:51;;;;;;;;;;;;;;;14.49;49.92;102231.28;1038130;28;700;-59
2022/03/06 02:08:41;;;;;;;;;;;;;;;14.49;50.22;102225.03;1038225;28;775;-58
2022/03/06 02:09:32;;;;;;;;;;;;;;;14.48;50.41;102229.53;1038218;28;762;-58
2022/03/06 02:10:22;;;;;;;;;;;;;;;14.49;50.39;102228.59;1038171;28;804;-58
2022/03/06 02:11:12;;;;;;;;;;;;;;;14.48;50.48;102228.69;1038072;28;1076;-58
2022/03/06 02:12:21;;;;;;;;;;;;;;;14.47;50.35;102226.94;1038111;28;703;-59
2022/03/06 02:13:12;;;;;;;;;;;;;;;14.47;50.44;102227.81;1037947;28;1545;-59
2022/03/06 02:14:02;;;;;;;;;;;;;;;14.48;50.46;102226.84;1038090;28;717;-59
2022/03/06 02:14:53;;;;;;;;;;;;;;;14.46;50.45;102226.09;1037896;28;1875;-61
2022/03/06 02:15:44;;;;;;;;;;;;;;;14.46;50.35;102225.22;1038153;28;724;-59
2022/03/06 02:16:34;;;;;;;;;;;;;;;14.46;50.17;102230.59;1037915;28;1733;-59
2022/03/06 02:17:25;;;;;;;;;;;;;;;14.45;50.27;102229.72;1038110;28;831;-60
2022/03/06 02:18:15;;;;;;;;;;;;;;;14.46;50.74;102220.72;1038110;28;783;-59
2022/03/06 02:19:06;;;;;;;;;;;;;;;14.46;50.60;102225.22;1038071;28;1183;-60
2022/03/06 02:19:56;;;;;;;;;;;;;;;14.45;50.60;102226.16;1038114;28;704;-60
2022/03/06 02:20:47;;;;;;;;;;;;;;;14.43;50.59;102222.72;1038248;28;687;-59
2022/03/06 02:21:37;;;;;;;;;;;;;;;14.44;50.83;102216.41;1038021;28;939;-59
2022/03/06 02:22:28;;;;;;;;;;;;;;;14.42;50.27;102219.16;1038243;28;679;-59
2022/03/06 02:23:18;;;;;;;;;;;;;;;14.43;50.74;102217.34;1038002;28;803;-59
2022/03/06 02:24:09;;;;;;;;;;;;;;;14.43;50.72;102228.06;1038146;28;799;-60
2022/03/06 02:24:59;;;;;;;;;;;;;;;14.43;50.05;102220.03;1038051;28;712;-60
2022/03/06 02:25:49;;;;;;;;;;;;;;;14.42;50.29;102223.66;1038031;28;842;-60
2022/03/06 02:26:40;;;;;;;;;;;;;;;14.41;50.29;102224.63;1038234;28;692;-59
2022/03/06 02:27:30;;;;;;;;;;;;;;;14.40;50.03;102225.53;1038069;28;862;-59
2022/03/06 02:28:21;;;;;;;;;;;;;;;14.43;50.67;102225.41;1038149;28;677;-59
2022/03/06 02:29:11;;;;;;;;;;;;;;;14.42;50.39;102223.66;1038019;28;780;-60
2022/03/06 02:30:02;;;;;;;;;;;;;;;14.42;50.63;102223.66;1038069;28;868;-59
2022/03/06 02:30:52;;;;;;;;;;;;;;;14.41;50.71;102227.31;1038643;28;788;-59
2022/03/06 02:31:42;;;;;;;;;;;;;;;14.40;50.04;102225.53;1038102;28;746;-60
2022/03/06 02:32:33;;;;;;;;;;;;;;;14.40;50.11;102222.84;1038069;28;786;-58
2022/03/06 02:33:23;;;;;;;;;;;;;;;14.38;50.39;102222.94;1038060;28;690;-59
2022/03/06 02:34:14;;;;;;;;;;;;;;;14.37;50.28;102218.53;1036423;28;1635;-59
2022/03/06 02:35:04;;;;;;;;;;;;;;;14.37;50.74;102214.97;1037973;28;804;-59
2022/03/06 02:35:54;;;;;;;;;;;;;;;14.39;50.34;102216.63;1037894;28;673;-59
2022/03/06 02:36:45;;;;;;;;;;;;;;;14.38;50.58;102222.06;1038023;28;827;-59
2022/03/06 02:37:35;;;;;;;;;;;;;;;14.37;49.94;102223.91;1038118;28;697;-58
2022/03/06 02:38:26;;;;;;;;;;;;;;;14.38;50.23;102222.06;1038113;28;626;-58
2022/03/06 02:39:16;;;;;;;;;;;;;;;14.37;50.87;102213.16;1037880;28;758;-59
2022/03/06 02:40:07;;;;;;;;;;;;;;;14.37;50.40;102225.72;1037961;28;753;-59
2022/03/06 02:40:57;;;;;;;;;;;;;;;14.38;50.77;102224.75;1037928;28;791;-59
2022/03/06 02:41:47;;;;;;;;;;;;;;;14.37;50.05;102225.72;1037970;28;969;-60
2022/03/06 02:42:38;;;;;;;;;;;;;;;14.37;50.63;102217.66;1038026;28;784;-59
2022/03/06 02:43:28;;;;;;;;;;;;;;;14.35;50.72;102216.88;1038058;28;762;-60
2022/03/06 02:44:19;;;;;;;;;;;;;;;14.34;50.22;102215.16;1038016;28;775;-59
2022/03/06 02:45:09;;;;;;;;;;;;;;;14.35;50.28;102219.56;1038037;28;666;-58
2022/03/06 02:46:00;;;;;;;;;;;;;;;14.35;50.68;102216.88;1038002;28;842;-59
2022/03/06 02:46:50;;;;;;;;;;;;;;;14.34;50.87;102223.19;1037988;28;697;-60
2022/03/06 02:47:41;;;;;;;;;;;;;;;14.36;50.03;102221.31;1037996;28;765;-59
2022/03/06 02:48:31;;;;;;;;;;;;;;;14.34;50.01;102218.69;1037280;28;807;-59
2022/03/06 02:49:21;;;;;;;;;;;;;;;14.34;50.88;102215.16;1038085;28;724;-59
2022/03/06 02:50:12;;;;;;;;;;;;;;;14.33;50.58;102214.28;1038028;28;663;-59
2022/03/06 02:51:02;;;;;;;;;;;;;;;14.36;50.25;102223.97;1037937;28;756;-58
2022/03/06 02:51:53;;;;;;;;;;;;;;;14.34;50.85;102224.06;1037963;28;732;-59
2022/03/06 02:52:43;;;;;;;;;;;;;;;14.33;50.30;102216.16;1037329;28;1801;-59
2022/03/06 02:53:33;;;;;;;;;;;;;;;14.34;50.47;102216.03;1037933;28;716;-61
2022/03/06 02:54:24;;;;;;;;;;;;;;;14.31;50.27;102218.91;1037987;28;700;-59
2022/03/06 02:55:14;;;;;;;;;;;;;;;14.31;50.68;102223.41;1037876;28;679;-59
2022/03/06 02:56:06;;;;;;;;;;;;;;;14.31;50.73;102220.72;1037996;28;747;-59
2022/03/06 02:56:56;;;;;;;;;;;;;;;14.31;50.14;102223.41;1037919;28;775;-58
2022/03/06 02:57:47;;;;;;;;;;;;;;;14.29;49.97;102219.94;1038034;28;729;-58
2022/03/06 02:58:39;;;;;;;;;;;;;;;14.29;50.19;102217.28;1038026;28;683;-59
2022/03/06 02:59:29;;;;;;;;;;;;;;;14.30;50.06;102221.69;1038042;28;1961;-59
2022/03/06 03:00:20;;;;;;;;;;;;;;;14.28;50.04;102218.22;1037622;28;1776;-59
2022/03/06 03:01:10;;;;;;;;;;;;;;;14.29;50.74;102225.31;1037843;28;864;-60
2022/03/06 03:02:01;;;;;;;;;;;;;;;14.30;50.69;102219.00;1037981;28;690;-59
2022/03/06 03:02:51;;;;;;;;;;;;;;;14.30;50.28;102224.34;1037936;28;773;-59
2022/03/06 03:03:44;;;;;;;;;;;;;;;14.28;49.97;102220.91;1036879;28;757;-58
2022/03/06 03:04:36;;;;;;;;;;;;;;;14.27;50.18;102222.72;1036720;28;707;-58
2022/03/06 03:05:27;;;;;;;;;;;;;;;14.25;50.56;102224.63;1037799;28;848;-58
2022/03/06 03:06:17;;;;;;;;;;;;;;;14.24;50.12;102214.84;1034552;28;657;-58
2022/03/06 03:07:07;;;;;;;;;;;;;;;14.25;50.27;102221.94;1034597;28;1646;-58
2022/03/06 03:07:58;;;;;;;;;;;;;;;14.23;50.30;102216.66;1036645;28;707;-58
2022/03/06 03:08:48;;;;;;;;;;;;;;;14.23;50.76;102213.13;1037254;28;1860;-58
2022/03/06 03:09:39;;;;;;;;;;;;;;;14.23;50.57;102223.84;1036851;28;861;-58
2022/03/06 03:10:29;;;;;;;;;;;;;;;14.22;50.19;102224.78;1038012;28;773;-58
2022/03/06 03:11:20;;;;;;;;;;;;;;;14.23;50.16;102221.16;1037867;28;707;-59
2022/03/06 03:12:10;;;;;;;;;;;;;;;14.23;50.55;102224.72;1037953;28;741;-60
2022/03/06 03:13:00;;;;;;;;;;;;;;;14.23;50.57;102224.72;1037828;28;683;-59
2022/03/06 03:13:51;;;;;;;;;;;;;;;14.22;50.17;102225.66;1037913;28;786;-59
2022/03/06 03:14:41;;;;;;;;;;;;;;;14.22;50.13;102222.97;1037979;28;765;-59
2022/03/06 03:15:32;;;;;;;;;;;;;;;14.22;50.38;102222.97;1037866;28;898;-60
2022/03/06 03:16:22;;;;;;;;;;;;;;;14.21;50.78;102225.75;1037938;28;770;-59
2022/03/06 03:17:12;;;;;;;;;;;;;;;14.20;50.42;102222.19;1037830;28;701;-60
2022/03/06 03:18:03;;;;;;;;;;;;;;;14.22;50.76;102222.97;1036751;28;774;-59
2022/03/06 03:18:53;;;;;;;;;;;;;;;14.21;50.47;102223.06;1037854;28;777;-59
2022/03/06 03:19:44;;;;;;;;;;;;;;;14.21;50.19;102223.94;1037781;28;1910;-59
2022/03/06 03:20:34;;;;;;;;;;;;;;;14.20;50.13;102221.34;1037840;28;786;-60
2022/03/06 03:21:25;;;;;;;;;;;;;;;14.20;50.97;102218.66;1034726;28;788;-59
2022/03/06 03:22:15;;;;;;;;;;;;;;;14.19;50.18;102216.94;1034609;28;868;-60
2022/03/06 03:23:06;;;;;;;;;;;;;;;14.19;51.00;102216.94;1038416;28;832;-59
2022/03/06 03:23:56;;;;;;;;;;;;;;;14.21;50.62;102218.56;1037781;28;953;-59
2022/03/06 03:24:46;;;;;;;;;;;;;;;14.19;50.66;102215.09;1037593;28;1810;-58
2022/03/06 03:25:37;;;;;;;;;;;;;;;14.19;50.73;102217.78;1037943;28;709;-59
2022/03/06 03:26:27;;;;;;;;;;;;;;;14.19;50.90;102215.09;1037871;28;968;-58
2022/03/06 03:27:18;;;;;;;;;;;;;;;14.18;50.86;102213.38;1037829;28;701;-58
2022/03/06 03:28:09;;;;;;;;;;;;;;;14.17;50.83;102214.34;1037756;28;822;-59
2022/03/06 03:29:00;;;;;;;;;;;;;;;14.17;50.32;102219.69;1037867;28;770;-58
2022/03/06 03:29:50;;;;;;;;;;;;;;;14.17;50.82;102217.00;1037897;28;1052;-59
2022/03/06 03:30:40;;;;;;;;;;;;;;;14.17;50.18;102221.50;1037865;28;765;-59
2022/03/06 03:31:31;;;;;;;;;;;;;;;14.15;50.12;102216.22;1037985;28;764;-59
2022/03/06 03:32:21;;;;;;;;;;;;;;;14.14;50.91;102217.22;1038087;28;1138;-59
2022/03/06 03:33:11;;;;;;;;;;;;;;;14.13;51.09;102220.84;1037843;28;652;-60
2022/03/06 03:34:02;;;;;;;;;;;;;;;14.17;50.84;102218.81;1037798;28;699;-59
2022/03/06 03:34:53;;;;;;;;;;;;;;;14.13;50.14;102228.88;1037894;28;770;-59
2022/03/06 03:35:43;;;;;;;;;;;;;;;14.13;50.61;102228.88;1037841;28;840;-59
2022/03/06 03:36:34;;;;;;;;;;;;;;;14.13;50.56;102228.03;1037728;28;908;-59
2022/03/06 03:37:24;;;;;;;;;;;;;;;14.14;50.28;102230.63;1038421;28;780;-59
2022/03/06 03:38:14;;;;;;;;;;;;;;;14.14;50.88;102235.13;1037717;28;670;-59
2022/03/06 03:39:05;;;;;;;;;;;;;;;14.15;50.71;102232.31;1037722;28;801;-59
2022/03/06 03:39:55;;;;;;;;;;;;;;;14.13;50.90;102228.88;1037811;28;712;-59
2022/03/06 03:40:47;;;;;;;;;;;;;;;14.13;50.42;102234.25;1037749;28;749;-59
2022/03/06 03:41:37;;;;;;;;;;;;;;;14.12;50.63;102232.53;1037804;28;756;-58
2022/03/06 03:42:28;;;;;;;;;;;;;;;14.14;51.01;102233.31;1034511;28;999;-59
2022/03/06 03:43:18;;;;;;;;;;;;;;;14.12;51.02;102232.53;1034595;28;725;-58
2022/03/06 03:44:08;;;;;;;;;;;;;;;14.12;50.28;102231.66;1038436;28;745;-59
2022/03/06 03:44:59;;;;;;;;;;;;;;;14.12;50.34;102231.66;1037671;28;930;-58
2022/03/06 03:45:49;;;;;;;;;;;;;;;14.12;50.87;102237.88;1037947;28;815;-59
2022/03/06 03:46:40;;;;;;;;;;;;;;;14.11;50.67;102236.16;1037899;28;686;-59
2022/03/06 03:47:30;;;;;;;;;;;;;;;14.09;50.66;102232.69;1037721;28;749;-59
2022/03/06 03:48:20;;;;;;;;;;;;;;;14.08;51.03;102235.47;1037788;28;697;-59
2022/03/06 03:49:11;;;;;;;;;;;;;;;14.07;50.39;102237.28;1037745;28;832;-60
2022/03/06 03:50:01;;;;;;;;;;;;;;;14.10;50.60;102237.09;1037778;28;713;-59
2022/03/06 03:50:52;;;;;;;;;;;;;;;14.08;51.01;102230.97;1037791;28;839;-59
2022/03/06 03:51:42;;;;;;;;;;;;;;;14.09;50.48;102234.50;1037784;28;690;-59
2022/03/06 03:52:33;;;;;;;;;;;;;;;14.09;51.05;102238.06;1037274;28;1798;-60
2022/03/06 03:53:23;;;;;;;;;;;;;;;14.08;50.22;102236.31;1037779;28;863;-59
2022/03/06 03:54:14;;;;;;;;;;;;;;;14.07;50.27;102236.41;1037621;28;708;-59
2022/03/06 03:55:04;;;;;;;;;;;;;;;14.07;50.75;102234.59;1038190;28;775;-59
2022/03/06 03:55:55;;;;;;;;;;;;;;;14.07;50.74;102241.78;1037736;28;700;-59
2022/03/06 03:56:45;;;;;;;;;;;;;;;14.05;50.98;102231.13;1037726;28;804;-59
2022/03/06 03:57:35;;;;;;;;;;;;;;;14.06;51.00;102234.69;1037693;28;924;-58
2022/03/06 03:58:26;;;;;;;;;;;;;;;14.05;50.46;102236.50;1037632;28;691;-59
2022/03/06 03:59:16;;;;;;;;;;;;;;;14.06;50.86;102237.34;1037729;28;692;-60
2022/03/06 04:00:07;;;;;;;;;;;;;;;14.04;50.90;102234.75;1037189;28;681;-58
2022/03/06 04:00:57;;;;;;;;;;;;;;;14.04;50.49;102232.09;1037592;28;700;-59
2022/03/06 04:01:47;;;;;;;;;;;;;;;14.03;50.76;102235.72;1037592;28;861;-59
2022/03/06 04:02:38;;;;;;;;;;;;;;;14.05;51.03;102241.00;1037768;28;820;-59
2022/03/06 04:03:28;;;;;;;;;;;;;;;14.03;50.35;102238.41;1037686;28;742;-59
2022/03/06 04:04:19;;;;;;;;;;;;;;;14.02;50.26;102231.31;1037791;28;669;-58
2022/03/06 04:05:09;;;;;;;;;;;;;;;14.04;50.32;102240.13;1037744;28;671;-59
2022/03/06 04:06:00;;;;;;;;;;;;;;;14.03;51.21;102237.53;1037594;28;877;-59
2022/03/06 04:06:50;;;;;;;;;;;;;;;14.03;50.55;102237.53;1037647;28;825;-60
2022/03/06 04:07:40;;;;;;;;;;;;;;;14.01;50.18;102240.28;1033464;28;709;-60
2022/03/06 04:08:31;;;;;;;;;;;;;;;14.02;50.31;102241.16;1033735;28;686;-59
2022/03/06 04:09:21;;;;;;;;;;;;;;;14.01;51.10;102245.66;1033619;28;690;-59
2022/03/06 04:10:12;;;;;;;;;;;;;;;14.00;51.06;102243.94;1033554;28;756;-59
2022/03/06 04:11:02;;;;;;;;;;;;;;;14.01;50.49;102239.44;1033653;28;735;-59
2022/03/06 04:11:52;;;;;;;;;;;;;;;14.02;51.06;102242.03;1033579;28;841;-59
2022/03/06 04:12:43;;;;;;;;;;;;;;;14.02;51.01;102247.38;1033747;28;703;-59
2022/03/06 04:13:33;;;;;;;;;;;;;;;14.03;50.74;102248.25;1033639;28;748;-59
2022/03/06 04:14:24;;;;;;;;;;;;;;;14.00;50.51;102243.06;1033500;28;787;-59
2022/03/06 04:15:14;;;;;;;;;;;;;;;14.00;50.73;102245.75;1033693;28;709;-59
2022/03/06 04:16:04;;;;;;;;;;;;;;;13.98;51.27;102242.28;1033537;28;822;-59
2022/03/06 04:16:55;;;;;;;;;;;;;;;14.00;50.40;102245.75;1033616;28;714;-59
2022/03/06 04:17:45;;;;;;;;;;;;;;;13.99;51.13;102244.88;1033776;28;707;-59
2022/03/06 04:18:36;;;;;;;;;;;;;;;13.98;50.50;102243.16;1033567;28;697;-60
2022/03/06 04:19:26;;;;;;;;;;;;;;;13.98;50.41;102236.91;1033679;28;1898;-59
2022/03/06 04:20:17;;;;;;;;;;;;;;;13.97;50.34;102236.09;1033487;28;842;-59
2022/03/06 04:21:07;;;;;;;;;;;;;;;13.97;51.00;102238.75;1033569;28;752;-59
2022/03/06 04:21:57;;;;;;;;;;;;;;;13.97;50.73;102238.75;1033539;28;743;-59
2022/03/06 04:22:48;;;;;;;;;;;;;;;13.96;50.64;102237.03;1037291;28;1595;-60
2022/03/06 04:23:38;;;;;;;;;;;;;;;13.98;50.92;102243.16;1037703;28;738;-59
2022/03/06 04:24:29;;;;;;;;;;;;;;;13.98;50.75;102236.91;1037380;28;1733;-60
2022/03/06 04:25:19;;;;;;;;;;;;;;;13.98;50.54;102239.59;1037633;28;713;-60
2022/03/06 04:26:09;;;;;;;;;;;;;;;13.98;50.66;102243.16;1037622;28;642;-60